Lewistown Municipal Airport
KLWT : now visible

Airfield :











YOU CAN JOIN US ON...

 
LOGIN :

Register | Disclaimer

   EN    FR    IT 

 









Legend :    VFR   Marginal VFR   IFR   Intensive IFR   Very Intensive IFR
Visi :
Ceiling :
>= 8 km
>= 3000ft
5 to 8 km
1000 to 3000 ft
1500m to 5 km
500 to 1000 ft
800 to 1500m
200 to 500 ft
< 800m
< 200 ft
Symbols :   Thunderstorms  Fog  Heavy snow  Heavy precipitations  Wind > 20 kt






- Airport Elevation : 4170 ft
- IATA code : LWT


KLWT - Lewistown Municipal

CURRENT METAR :
  • 162254Z AUTO 32009G17KT 10SM CLR 16/M05 A2984 RMK AO2 SLP098 T01561050

EXPIRED METARs :
  • 162154Z AUTO 31011G19KT 10SM CLR 16/M04 A2985 RMK AO2 SLP098 T01561044
  • 162054Z AUTO 30013G24KT 10SM FEW090 16/M04 A2986 RMK AO2 PK WND 31026/1956 SLP104 T01561039 58002
  • 161954Z AUTO 29010G20KT 10SM FEW075 15/M04 A2986 RMK AO2 PK WND 31026/1905 SLP097 T01501044
  • 161854Z AUTO 31012G28KT 10SM FEW075 14/M05 A2986 RMK AO2 PK WND 29028/1845 SLP105 T01391050

TAF KLWT
Valid from the 17 at 00:00 until the 18 at 00:00 UTC


162320Z 1700/1724 31014G20KT P6SM SCT120
FM170200 13007KT P6SM BKN090
FM171300 08008KT P6SM VCSH SCT025 BKN050
FM171600 07007KT P6SM -SHRA SCT025 BKN035
KZLC FIR / North America



MET'MAP, your aeronautical weather chart ! - Copyright ORBIFLY December 2007 - Disclaimer

ORBIFLY MET'MAP TEAM :

Programming & Development : Alexandra Zaïnal
Original concept : Baudouin d'Aumeries
Technical & hardware support : Manuel Goepfert
Assistance : Marc-Olivier Méhu




SOURCES & CREDITS :

   NOAA       Earth
Advisory